createdAt,value
2022-07-29T00:02:25.599Z,45.37
2022-07-29T00:04:52.352Z,46.50
2022-07-29T00:07:19.005Z,46.22
2022-07-29T00:09:51.911Z,47.14
2022-07-29T00:12:25.532Z,45.75
2022-07-29T00:14:54.626Z,46.04
2022-07-29T00:17:21.713Z,46.17
2022-07-29T00:19:48.373Z,46.50
2022-07-29T00:22:16.239Z,45.93
2022-07-29T00:24:42.880Z,45.84
2022-07-29T00:27:09.561Z,45.14
2022-07-29T00:29:36.198Z,44.75
2022-07-29T00:32:03.633Z,45.48
2022-07-29T00:34:31.218Z,44.73
2022-07-29T00:36:58.045Z,46.16
2022-07-29T00:39:24.685Z,46.15
2022-07-29T00:41:51.537Z,47.07
2022-07-29T00:44:18.558Z,46.10
2022-07-29T00:46:45.330Z,46.39
2022-07-29T00:49:12.339Z,45.45
2022-07-29T00:51:39.098Z,45.55
2022-07-29T00:54:06.516Z,46.13
2022-07-29T00:56:34.228Z,46.04
2022-07-29T00:59:01.193Z,46.35
2022-07-29T01:01:28.055Z,45.38
2022-07-29T01:03:54.879Z,45.71
2022-07-29T01:06:21.799Z,46.20
2022-07-29T01:08:49.052Z,45.63
2022-07-29T01:11:17.292Z,47.14
2022-07-29T01:13:45.523Z,47.69
2022-07-29T01:16:19.255Z,48.01
2022-07-29T01:18:50.023Z,47.02
2022-07-29T01:21:45.609Z,47.30
2022-07-29T01:25:07.881Z,47.75
2022-07-29T01:27:40.215Z,47.65
2022-07-29T01:30:09.816Z,47.79
2022-07-29T01:32:39.777Z,47.76
2022-07-29T01:35:11.793Z,47.33
2022-07-29T01:37:44.586Z,48.30
2022-07-29T01:40:19.731Z,49.64
2022-07-29T01:42:55.381Z,49.56
2022-07-29T01:45:38.569Z,49.36
2022-07-29T01:48:25.546Z,49.77
2022-07-29T01:51:07.097Z,49.56
2022-07-29T01:53:45.562Z,49.13
2022-07-29T01:56:14.528Z,50.68
2022-07-29T01:58:43.425Z,50.03
2022-07-29T02:01:11.000Z,50.35
2022-07-29T02:03:39.388Z,50.90
2022-07-29T02:06:08.395Z,50.41
2022-07-29T02:08:38.062Z,50.50
2022-07-29T02:11:07.165Z,50.36
2022-07-29T02:13:36.891Z,49.33
2022-07-29T02:16:07.740Z,50.40
2022-07-29T02:18:38.505Z,50.20
2022-07-29T02:21:05.599Z,50.65
2022-07-29T02:23:45.281Z,51.18
2022-07-29T02:26:23.446Z,50.86
2022-07-29T02:28:53.203Z,51.91
2022-07-29T02:31:25.327Z,52.02
2022-07-29T02:33:54.233Z,53.21
2022-07-29T02:36:23.954Z,53.19
2022-07-29T02:38:51.570Z,53.89
2022-07-29T02:41:30.639Z,52.61
2022-07-29T02:44:05.575Z,53.40
2022-07-29T02:46:36.037Z,53.08
2022-07-29T02:49:25.579Z,53.35
2022-07-29T02:51:56.543Z,53.73
2022-07-29T02:55:20.414Z,52.86
2022-07-29T02:58:17.002Z,53.24
2022-07-29T03:00:46.032Z,52.59
2022-07-29T03:03:16.369Z,52.82
2022-07-29T03:05:43.164Z,53.84
2022-07-29T03:08:11.890Z,54.39
2022-07-29T03:10:40.676Z,53.99
2022-07-29T03:13:09.368Z,54.24
2022-07-29T03:15:37.127Z,54.60
2022-07-29T03:18:04.848Z,54.13
2022-07-29T03:20:31.988Z,53.31
2022-07-29T03:22:58.769Z,54.40
2022-07-29T03:25:25.443Z,53.67
2022-07-29T03:27:52.068Z,54.48
2022-07-29T03:30:21.759Z,54.22
2022-07-29T03:32:52.080Z,54.47
2022-07-29T03:35:20.469Z,54.57
2022-07-29T03:37:47.768Z,54.65
2022-07-29T03:40:23.227Z,54.44
2022-07-29T03:42:52.980Z,55.59
2022-07-29T03:45:20.889Z,54.78
2022-07-29T03:47:54.676Z,55.04
2022-07-29T03:50:23.124Z,56.13
2022-07-29T03:52:50.805Z,56.31
2022-07-29T03:55:18.045Z,56.54
2022-07-29T03:57:46.313Z,56.29
2022-07-29T04:00:13.474Z,55.63
2022-07-29T04:02:41.060Z,56.11
2022-07-29T04:05:13.838Z,55.95
2022-07-29T04:07:41.553Z,57.88
2022-07-29T04:10:08.527Z,55.81
2022-07-29T04:12:35.265Z,56.80
2022-07-29T04:15:03.739Z,55.46
2022-07-29T04:17:30.372Z,56.82
2022-07-29T04:19:57.029Z,56.91
2022-07-29T04:22:23.660Z,58.09
2022-07-29T04:24:51.776Z,58.25
2022-07-29T04:27:18.423Z,57.44
2022-07-29T04:29:57.067Z,58.28
2022-07-29T04:32:25.160Z,57.90
2022-07-29T04:34:52.342Z,58.35
2022-07-29T04:37:19.151Z,59.42
2022-07-29T04:39:45.834Z,58.33
2022-07-29T04:42:12.459Z,58.53
2022-07-29T04:44:40.023Z,58.60
2022-07-29T04:47:10.101Z,58.54
2022-07-29T04:49:39.362Z,58.26
2022-07-29T04:52:06.787Z,58.35
2022-07-29T04:54:33.640Z,59.63
2022-07-29T04:57:00.267Z,57.42
2022-07-29T04:59:26.909Z,58.48
2022-07-29T05:01:53.591Z,58.49
2022-07-29T05:04:20.847Z,58.23
2022-07-29T05:06:47.645Z,58.35
2022-07-29T05:09:14.339Z,58.31
2022-07-29T05:11:40.944Z,57.89
2022-07-29T05:14:07.573Z,58.53
2022-07-29T05:16:34.266Z,57.55
2022-07-29T05:19:00.878Z,57.88
2022-07-29T05:21:27.527Z,58.13
2022-07-29T05:23:54.175Z,57.77
2022-07-29T05:26:20.810Z,57.15
2022-07-29T05:28:47.454Z,57.55
2022-07-29T05:31:14.219Z,57.86
2022-07-29T05:33:44.035Z,56.43
2022-07-29T05:36:10.965Z,56.18
2022-07-29T05:38:37.688Z,56.82
2022-07-29T05:41:07.076Z,56.36
2022-07-29T05:43:34.177Z,56.02
2022-07-29T05:46:00.996Z,54.11
2022-07-29T05:48:28.358Z,53.39
2022-07-29T05:50:55.035Z,55.31
2022-07-29T05:53:21.871Z,53.62
2022-07-29T05:55:49.520Z,55.05
2022-07-29T05:58:16.600Z,53.85
2022-07-29T06:00:43.410Z,52.63
2022-07-29T06:03:10.092Z,52.17
2022-07-29T06:05:36.734Z,52.03
2022-07-29T06:08:03.542Z,52.13
2022-07-29T06:10:30.380Z,52.08
2022-07-29T06:12:57.033Z,51.33
2022-07-29T06:15:23.648Z,52.17
2022-07-29T06:17:59.922Z,50.67
2022-07-29T06:20:28.868Z,50.18
2022-07-29T06:22:55.492Z,50.00
2022-07-29T06:25:22.244Z,47.90
2022-07-29T06:27:48.926Z,48.68
2022-07-29T06:30:15.624Z,48.66
2022-07-29T06:32:43.357Z,48.53
2022-07-29T06:35:37.949Z,46.12
2022-07-29T06:37:59.521Z,46.88
2022-07-29T06:40:26.986Z,47.21
2022-07-29T06:42:53.598Z,47.09
2022-07-29T06:45:20.311Z,46.58
2022-07-29T06:47:46.929Z,46.99
2022-07-29T06:50:13.572Z,46.26
2022-07-29T06:52:40.205Z,46.05
2022-07-29T06:55:07.471Z,45.68
2022-07-29T06:57:34.206Z,45.67
2022-07-29T07:00:01.097Z,45.67
2022-07-29T07:02:27.783Z,45.42
2022-07-29T07:04:54.716Z,45.55
2022-07-29T07:07:21.352Z,45.19
2022-07-29T07:09:48.149Z,45.35
2022-07-29T07:12:14.820Z,45.21
2022-07-29T07:14:41.507Z,45.98
2022-07-29T07:17:08.411Z,45.52
2022-07-29T07:19:35.044Z,45.69
2022-07-29T07:22:01.687Z,45.13
2022-07-29T07:24:30.536Z,45.70
2022-07-29T07:26:57.157Z,46.42
2022-07-29T07:29:23.920Z,44.62
2022-07-29T07:31:50.651Z,45.09
2022-07-29T07:34:17.613Z,44.06
2022-07-29T07:36:55.459Z,45.06
2022-07-29T07:39:22.075Z,44.57
2022-07-29T07:41:48.751Z,43.64
2022-07-29T07:44:16.185Z,45.33
2022-07-29T07:46:42.958Z,43.60
2022-07-29T07:49:09.660Z,43.58
2022-07-29T07:51:36.364Z,42.61
2022-07-29T07:54:03.267Z,42.91
2022-07-29T07:56:35.052Z,43.03
2022-07-29T07:59:02.093Z,44.54
2022-07-29T08:01:28.751Z,44.75
2022-07-29T08:03:55.465Z,42.41
2022-07-29T08:06:22.109Z,41.35
2022-07-29T08:08:48.732Z,42.67
2022-07-29T08:11:15.350Z,41.28
2022-07-29T08:13:42.001Z,41.70
2022-07-29T08:16:09.146Z,40.84
2022-07-29T08:18:35.862Z,40.76
2022-07-29T08:21:02.589Z,41.89
2022-07-29T08:23:45.742Z,42.16
2022-07-29T08:26:14.819Z,41.01
2022-07-29T08:28:43.845Z,39.83
2022-07-29T08:31:10.486Z,39.55
2022-07-29T08:33:37.141Z,38.60
2022-07-29T08:36:04.188Z,38.62
2022-07-29T08:38:30.814Z,39.60
2022-07-29T08:40:57.853Z,37.86
2022-07-29T08:43:25.184Z,40.05
2022-07-29T08:45:52.815Z,36.92
2022-07-29T08:48:22.654Z,37.43
2022-07-29T08:50:55.610Z,38.96
2022-07-29T08:53:23.096Z,36.77
2022-07-29T08:55:50.910Z,38.46
2022-07-29T08:58:18.370Z,37.52
2022-07-29T09:00:53.458Z,35.99
2022-07-29T09:03:25.483Z,36.25
2022-07-29T09:05:52.710Z,36.99
2022-07-29T09:08:19.912Z,35.91
2022-07-29T09:10:46.640Z,37.09
2022-07-29T09:13:13.335Z,35.89
2022-07-29T09:15:41.226Z,34.62
2022-07-29T09:18:07.873Z,34.68
2022-07-29T09:20:53.349Z,35.10
2022-07-29T09:23:23.284Z,34.52
2022-07-29T09:25:51.307Z,35.01
2022-07-29T09:28:18.820Z,33.71
2022-07-29T09:30:59.319Z,33.49
2022-07-29T09:33:33.496Z,32.52
2022-07-29T09:36:10.537Z,33.05
2022-07-29T09:38:37.842Z,32.75
2022-07-29T09:41:06.844Z,31.86
2022-07-29T09:43:34.408Z,32.78
2022-07-29T09:46:14.508Z,32.17
2022-07-29T09:48:41.382Z,31.83
2022-07-29T09:51:21.383Z,31.44
2022-07-29T09:53:48.986Z,29.62
2022-07-29T09:56:15.868Z,29.86
2022-07-29T09:58:42.516Z,31.11
2022-07-29T10:01:09.483Z,31.71
2022-07-29T10:03:52.556Z,32.58
2022-07-29T10:06:19.377Z,32.10
2022-07-29T10:08:46.192Z,33.11
2022-07-29T10:11:20.081Z,31.97
2022-07-29T10:13:49.628Z,32.20
2022-07-29T10:16:17.963Z,32.71
2022-07-29T10:18:45.615Z,32.90
2022-07-29T10:21:22.570Z,32.73
2022-07-29T10:24:01.371Z,30.67
2022-07-29T10:26:30.066Z,29.21
2022-07-29T10:28:56.879Z,30.43
2022-07-29T10:31:32.181Z,32.91
2022-07-29T10:34:08.064Z,31.25
2022-07-29T10:36:37.694Z,29.93
2022-07-29T10:39:22.202Z,29.50
2022-07-29T10:42:20.012Z,31.42
2022-07-29T10:44:47.876Z,28.45
2022-07-29T10:47:28.195Z,28.76
2022-07-29T10:50:02.369Z,29.37
2022-07-29T10:52:50.604Z,29.81
2022-07-29T10:55:37.806Z,30.63
2022-07-29T10:58:20.250Z,30.03
2022-07-29T11:00:52.474Z,30.15
2022-07-29T11:03:52.170Z,30.06
2022-07-29T11:06:26.729Z,28.60
2022-07-29T11:09:17.212Z,29.01
2022-07-29T11:11:51.378Z,29.10
2022-07-29T11:14:56.755Z,30.30
2022-07-29T11:17:24.710Z,29.19
2022-07-29T11:19:52.187Z,28.19
2022-07-29T11:22:36.559Z,27.82
2022-07-29T11:25:17.646Z,26.75
2022-07-29T11:27:45.941Z,26.99
2022-07-29T11:30:12.638Z,25.46
2022-07-29T11:32:41.598Z,26.39
2022-07-29T11:38:28.756Z,25.65
2022-07-29T11:41:21.468Z,26.79
2022-07-29T11:43:53.469Z,28.95
2022-07-29T11:46:49.271Z,27.35
2022-07-29T11:49:31.528Z,27.89
2022-07-29T11:51:59.792Z,27.16
2022-07-29T11:54:57.309Z,28.93
2022-07-29T11:57:23.080Z,30.19
2022-07-29T12:02:55.871Z,27.89
2022-07-29T12:05:37.670Z,27.27
2022-07-29T12:08:18.134Z,28.32
2022-07-29T12:10:45.187Z,26.81
2022-07-29T12:13:12.267Z,27.48
2022-07-29T12:15:46.083Z,26.29
2022-07-29T12:18:19.387Z,26.15
2022-07-29T12:20:47.609Z,25.78
2022-07-29T12:23:16.248Z,25.80
2022-07-29T12:25:44.585Z,26.50
2022-07-29T12:28:16.563Z,27.34
2022-07-29T12:30:53.837Z,26.35
2022-07-29T12:33:25.737Z,27.15
2022-07-29T12:36:07.271Z,27.22
2022-07-29T12:38:36.480Z,27.29
2022-07-29T12:41:04.914Z,28.63
2022-07-29T12:43:32.397Z,26.74
2022-07-29T12:45:59.115Z,25.75
2022-07-29T12:48:40.969Z,26.26
2022-07-29T12:51:09.304Z,27.24
2022-07-29T12:53:37.244Z,25.86
2022-07-29T12:56:15.604Z,26.23
2022-07-29T12:58:52.233Z,26.90
2022-07-29T13:01:20.486Z,24.47
2022-07-29T13:03:56.824Z,24.64
2022-07-29T13:06:32.902Z,24.61
2022-07-29T13:09:06.174Z,24.14
2022-07-29T13:11:36.777Z,27.91
2022-07-29T13:14:06.753Z,25.04
2022-07-29T13:16:34.018Z,24.91
2022-07-29T13:19:12.725Z,25.83
2022-07-29T13:21:40.681Z,24.97
2022-07-29T13:24:08.386Z,24.26
2022-07-29T13:26:35.464Z,24.36
2022-07-29T13:29:02.074Z,23.89
2022-07-29T13:31:28.760Z,25.30
2022-07-29T13:33:55.411Z,26.92
2022-07-29T13:36:22.057Z,23.69
2022-07-29T13:38:48.711Z,23.37
2022-07-29T13:41:15.454Z,24.54
2022-07-29T13:43:44.919Z,25.40
2022-07-29T13:46:11.632Z,24.44
2022-07-29T13:48:38.562Z,25.31
2022-07-29T13:51:05.227Z,24.75
2022-07-29T13:53:31.938Z,26.55
2022-07-29T13:55:58.602Z,24.53
2022-07-29T13:58:25.326Z,25.84
2022-07-29T14:00:52.005Z,24.78
2022-07-29T14:03:18.698Z,26.67
2022-07-29T14:05:45.419Z,25.74
2022-07-29T14:08:12.222Z,23.92
2022-07-29T14:10:38.894Z,24.05
2022-07-29T14:13:05.532Z,22.77
2022-07-29T14:15:48.951Z,23.17
2022-07-29T14:18:15.570Z,24.38
2022-07-29T14:20:42.312Z,24.36
2022-07-29T14:23:08.921Z,23.18
2022-07-29T14:25:36.138Z,24.04
2022-07-29T14:28:06.984Z,23.92
2022-07-29T14:30:33.728Z,22.28
2022-07-29T14:33:00.343Z,25.77
2022-07-29T14:35:27.060Z,23.22
2022-07-29T14:37:53.743Z,24.57
2022-07-29T14:40:20.396Z,22.49
2022-07-29T14:42:47.037Z,23.51
2022-07-29T14:45:13.681Z,23.41
2022-07-29T14:47:41.425Z,24.52
2022-07-29T14:50:09.168Z,24.07
2022-07-29T14:52:36.175Z,24.55
2022-07-29T14:55:04.585Z,22.66
2022-07-29T14:57:31.482Z,24.83
2022-07-29T14:59:58.147Z,24.97
2022-07-29T15:02:40.019Z,24.02
2022-07-29T15:05:11.391Z,22.99
2022-07-29T15:07:38.079Z,23.52
2022-07-29T15:10:05.018Z,23.71
2022-07-29T15:12:34.990Z,23.33
2022-07-29T15:15:01.610Z,24.32
2022-07-29T15:17:30.258Z,23.78
2022-07-29T15:19:56.881Z,24.08
2022-07-29T15:22:23.556Z,23.84
2022-07-29T15:24:50.293Z,23.57
2022-07-29T15:27:16.923Z,24.77
2022-07-29T15:29:45.087Z,23.67
2022-07-29T15:32:12.005Z,22.88
2022-07-29T15:34:39.100Z,22.31
2022-07-29T15:37:06.218Z,22.83
2022-07-29T15:39:33.226Z,24.17
2022-07-29T15:42:00.445Z,22.65
2022-07-29T15:44:27.370Z,22.89
2022-07-29T15:46:54.090Z,23.25
2022-07-29T15:49:20.845Z,23.38
2022-07-29T15:51:49.555Z,23.37
2022-07-29T15:54:16.171Z,22.29
2022-07-29T15:56:42.793Z,24.27
2022-07-29T15:59:09.425Z,23.24
2022-07-29T16:01:49.878Z,23.87
2022-07-29T16:04:16.801Z,23.23
2022-07-29T16:06:44.968Z,23.72
2022-07-29T16:09:11.825Z,22.54
2022-07-29T16:11:38.520Z,23.61
2022-07-29T16:14:05.443Z,22.12
2022-07-29T16:16:35.856Z,21.66
2022-07-29T16:19:03.457Z,23.03
2022-07-29T16:21:30.194Z,23.92
2022-07-29T16:23:57.467Z,24.56
2022-07-29T16:26:24.706Z,24.48
2022-07-29T16:28:51.326Z,24.01
2022-07-29T16:31:18.644Z,25.14
2022-07-29T16:33:54.833Z,24.65
2022-07-29T16:36:23.139Z,24.29
2022-07-29T16:38:50.832Z,22.26
2022-07-29T16:41:17.663Z,23.26
2022-07-29T16:43:44.518Z,23.10
2022-07-29T16:46:13.107Z,23.01
2022-07-29T16:48:45.489Z,22.18
2022-07-29T16:51:14.277Z,22.23
2022-07-29T16:53:41.610Z,22.91
2022-07-29T16:56:11.824Z,21.83
2022-07-29T16:58:43.618Z,24.86
2022-07-29T17:01:11.802Z,24.91
2022-07-29T17:03:38.518Z,22.90
2022-07-29T17:06:05.201Z,23.43
2022-07-29T17:08:31.940Z,23.67
2022-07-29T17:10:58.572Z,24.08
2022-07-29T17:13:25.217Z,23.71
2022-07-29T17:15:51.843Z,26.03
2022-07-29T17:18:18.575Z,26.55
2022-07-29T17:20:45.276Z,26.24
2022-07-29T17:23:11.911Z,25.92
2022-07-29T17:25:38.609Z,26.92
2022-07-29T17:28:05.309Z,27.06
2022-07-29T17:30:31.946Z,26.41
2022-07-29T17:32:58.551Z,25.60
2022-07-29T17:35:25.224Z,26.47
2022-07-29T17:37:52.410Z,27.78
2022-07-29T17:40:19.036Z,28.75
2022-07-29T17:42:45.745Z,28.65
2022-07-29T17:45:12.495Z,29.26
2022-07-29T17:47:39.217Z,28.99
2022-07-29T17:50:06.066Z,29.37
2022-07-29T17:52:32.711Z,30.31
2022-07-29T17:54:59.486Z,30.24
2022-07-29T17:57:26.211Z,30.05
2022-07-29T17:59:52.895Z,29.67
2022-07-29T18:02:19.554Z,30.26
2022-07-29T18:04:46.263Z,32.35
2022-07-29T18:07:17.252Z,31.21
2022-07-29T18:09:43.933Z,31.59
2022-07-29T18:12:10.772Z,30.92
2022-07-29T18:14:37.585Z,32.01
2022-07-29T18:17:04.235Z,31.65
2022-07-29T18:19:30.855Z,31.71
2022-07-29T18:22:03.162Z,32.15
2022-07-29T18:24:31.678Z,32.95
2022-07-29T18:26:58.540Z,33.07
2022-07-29T18:29:25.416Z,33.53
2022-07-29T18:31:52.029Z,33.25
2022-07-29T18:34:21.313Z,33.80
2022-07-29T18:36:48.008Z,33.72
2022-07-29T18:39:20.376Z,33.66
2022-07-29T18:41:51.879Z,34.27
2022-07-29T18:44:22.838Z,34.39
2022-07-29T18:46:50.954Z,34.17
2022-07-29T18:49:18.015Z,34.94
2022-07-29T18:51:44.690Z,34.94
2022-07-29T18:54:11.492Z,35.00
2022-07-29T18:56:38.199Z,34.76
2022-07-29T18:59:05.236Z,35.43
2022-07-29T19:01:32.242Z,35.81
2022-07-29T19:03:59.473Z,34.57
2022-07-29T19:06:26.259Z,35.12
2022-07-29T19:08:53.672Z,35.09
2022-07-29T19:11:20.380Z,35.27
2022-07-29T19:13:47.019Z,35.43
2022-07-29T19:16:13.762Z,35.67
2022-07-29T19:18:40.973Z,35.83
2022-07-29T19:21:07.721Z,36.77
2022-07-29T19:24:06.059Z,37.09
2022-07-29T19:26:21.523Z,36.96
2022-07-29T19:28:48.851Z,36.82
2022-07-29T19:31:16.131Z,36.60
2022-07-29T19:33:42.810Z,36.63
2022-07-29T19:36:09.490Z,37.16
2022-07-29T19:38:36.195Z,36.93
2022-07-29T19:41:02.814Z,37.77
2022-07-29T19:43:50.354Z,37.43
2022-07-29T19:46:16.095Z,38.22
2022-07-29T19:48:42.780Z,38.11
2022-07-29T19:51:09.450Z,38.60
2022-07-29T19:53:36.094Z,38.97
2022-07-29T19:56:02.742Z,38.78
2022-07-29T19:58:29.985Z,38.58
2022-07-29T20:00:56.637Z,38.69
2022-07-29T20:03:23.285Z,38.64
2022-07-29T20:05:50.289Z,38.60
2022-07-29T20:08:17.651Z,39.46
2022-07-29T20:10:44.555Z,40.41
2022-07-29T20:13:11.247Z,40.69
2022-07-29T20:15:37.980Z,40.32
2022-07-29T20:18:05.144Z,40.65
2022-07-29T20:20:31.769Z,40.72
2022-07-29T20:22:58.688Z,41.57
2022-07-29T20:25:25.816Z,41.00
2022-07-29T20:27:52.673Z,41.49
2022-07-29T20:30:20.058Z,40.76
2022-07-29T20:32:48.123Z,40.60
2022-07-29T20:35:14.791Z,40.86
2022-07-29T20:37:55.664Z,41.00
2022-07-29T20:40:24.756Z,40.65
2022-07-29T20:42:51.441Z,40.54
2022-07-29T20:45:18.041Z,40.13
2022-07-29T20:47:44.671Z,40.44
2022-07-29T20:50:11.635Z,41.04
2022-07-29T20:52:38.404Z,41.18
2022-07-29T20:55:05.573Z,41.58
2022-07-29T20:57:38.495Z,41.41
2022-07-29T21:00:07.426Z,41.33
2022-07-29T21:02:34.297Z,40.55
2022-07-29T21:05:01.001Z,40.90
2022-07-29T21:07:27.662Z,41.93
2022-07-29T21:09:54.399Z,41.55
2022-07-29T21:12:21.165Z,41.05
2022-07-29T21:14:47.901Z,40.52
2022-07-29T21:17:15.997Z,41.33
2022-07-29T21:19:42.826Z,41.42
2022-07-29T21:22:09.866Z,41.69
2022-07-29T21:24:36.539Z,41.89
2022-07-29T21:27:19.688Z,42.23
2022-07-29T21:29:47.660Z,41.13
2022-07-29T21:32:14.373Z,42.13
2022-07-29T21:34:57.230Z,42.88
2022-07-29T21:37:24.068Z,43.28
2022-07-29T21:39:50.808Z,42.61
2022-07-29T21:42:17.458Z,42.49
2022-07-29T21:44:44.110Z,41.69
2022-07-29T21:47:10.749Z,42.18
2022-07-29T21:49:37.962Z,43.56
2022-07-29T21:52:05.017Z,42.62
2022-07-29T21:54:31.830Z,43.73
2022-07-29T21:56:58.550Z,43.81
2022-07-29T21:59:27.584Z,44.78
2022-07-29T22:01:54.284Z,45.76
2022-07-29T22:04:21.256Z,45.74
2022-07-29T22:06:47.984Z,46.59
2022-07-29T22:09:14.593Z,46.41
2022-07-29T22:11:41.205Z,46.48
2022-07-29T22:14:08.018Z,46.71
2022-07-29T22:16:34.709Z,46.21
2022-07-29T22:19:01.381Z,46.32
2022-07-29T22:21:27.994Z,46.36
2022-07-29T22:23:54.634Z,46.69
2022-07-29T22:26:21.348Z,47.30
2022-07-29T22:28:48.088Z,48.10
2022-07-29T22:31:14.755Z,47.27
2022-07-29T22:33:41.442Z,45.46
2022-07-29T22:36:08.186Z,47.57
2022-07-29T22:38:34.826Z,47.23
2022-07-29T22:41:01.725Z,49.67
2022-07-29T22:43:30.128Z,49.37
2022-07-29T22:45:56.769Z,49.55
2022-07-29T22:48:23.457Z,49.46
2022-07-29T22:50:50.073Z,49.26
2022-07-29T22:53:16.682Z,49.37
2022-07-29T22:55:43.460Z,48.98
2022-07-29T22:58:10.066Z,49.73
2022-07-29T23:00:36.782Z,49.64
2022-07-29T23:03:03.412Z,49.60
2022-07-29T23:05:30.106Z,48.09
2022-07-29T23:07:56.718Z,49.85
2022-07-29T23:10:23.502Z,50.32
2022-07-29T23:12:50.154Z,49.88
2022-07-29T23:15:16.840Z,50.38
2022-07-29T23:17:44.817Z,50.99
2022-07-29T23:20:11.539Z,51.35
2022-07-29T23:22:41.965Z,52.84
2022-07-29T23:25:08.845Z,52.63
2022-07-29T23:27:36.286Z,52.09
2022-07-29T23:30:04.840Z,52.47
2022-07-29T23:32:31.537Z,52.41
2022-07-29T23:34:58.174Z,52.27
2022-07-29T23:37:24.770Z,51.61
2022-07-29T23:39:53.590Z,52.54
2022-07-29T23:42:20.259Z,53.03
2022-07-29T23:44:46.952Z,53.51
2022-07-29T23:47:13.591Z,53.32
2022-07-29T23:49:40.273Z,53.61
2022-07-29T23:52:06.963Z,53.28
2022-07-29T23:54:33.604Z,52.80
2022-07-29T23:57:00.619Z,53.61
2022-07-29T23:59:27.371Z,54.11
